Eindhoven, Netherlands

6:19 PM CEST on September 25, 2016 (GMT +0200)
Eindhoven Air Base

Weather History for EHEH - December, 2012

Change the Weather History Date:

Saturday, December 15, 2012

  Actual Average Record
Temperature  
Mean Temperature 48 °F -  
Max Temperature 50 °F 41 °F 53 °F (1998)
Min Temperature 46 °F 32 °F 21 °F (2001)
Degree Days  
Heating Degree Days 17    
Moisture  
Dew Point 44 °F    
Average Humidity 85    
Maximum Humidity 100    
Minimum Humidity 70    
Precipitation  
Precipitation 0.00 in - - ()
Sea Level Pressure  
Sea Level Pressure 29.42 in    
Wind  
Wind Speed 12 mph ()    
Max Wind Speed 18 mph    
Max Gust Speed -    
Visibility 6.7 miles    
Events Rain    
Averages and records for this station are not official NWS values.
T = Trace of Precipitation, MM = Missing Value Source: Averaged Metar Reports

Daily Weather History Graph

Daily Weather History Graph

Search for Another Location

Airport or City:

Trip Planner

Search our weather history database for the weather conditions in past years. The results will help you decide how hot, cold, wet, or windy it might be!

Date:

Astronomy

Dec. 15, 2012 Rise Set
Actual Time 8:37 AM CET 4:29 PM CET
Civil Twilight 7:57 AM CET 5:10 PM CET
Nautical Twilight 7:14 AM CET 5:53 PM CET
Astronomical Twilight 6:33 AM CET 6:33 PM CET
Moon 10:07 AM CET (12/15) 7:28 PM CET (12/15)
Length of Visible Light 9h 12m
Length of Day
7h 52m
Waxing Crescent, 7% of the Moon is Illuminated
Dec 15
Waxing Crescent
Dec 20
First Quarter
Dec 28
Full
Jan 5
Last Quarter
Jan 11
New

Hourly Weather History & Observations

Time (CET) Temp. Windchill Dew Point Humidity Pressure Visibility Wind Dir Wind Speed Gust Speed Precip Events Conditions
12:25 AM 50.0 °F - 46.4 °F 87% 29.21 in 6.2 mi SSW 17.3 mph - N/A   Mostly Cloudy
12:55 AM 50.0 °F - 46.4 °F 87% 29.21 in 6.2 mi SSW 16.1 mph - N/A Rain Light Rain
12:56 AM 50.0 °F - 46.4 °F 87% 29.21 in 6.2 mi SW 13.8 mph - N/A Rain Light Rain
1:00 AM 50 °F - 46 °F 81% 29.24 in 16 mi SSW 11.2 mph - - Rain Light Rain Showers
1:25 AM 50.0 °F - 46.4 °F 87% 29.24 in 6.2 mi SW 13.8 mph - N/A   Overcast
1:35 AM 50.0 °F - 46.4 °F 87% 29.24 in 6.2 mi SSW 13.8 mph - N/A   Mostly Cloudy
1:55 AM 50.0 °F - 44.6 °F 82% 29.24 in 6.2 mi SSW 12.7 mph - N/A   Overcast
1:59 AM 50.0 °F - 44.6 °F 82% 29.24 in 6.2 mi SSW 12.7 mph - N/A   Mostly Cloudy
2:06 AM 50.0 °F - 44.6 °F 82% 29.24 in 6.2 mi SSW 13.8 mph - N/A   Mostly Cloudy
2:25 AM 50.0 °F - 44.6 °F 82% 29.24 in 6.2 mi SSW 15.0 mph - N/A   Overcast
2:34 AM 50.0 °F - 44.6 °F 82% 29.24 in 6.2 mi SSW 13.8 mph - N/A   Overcast
2:40 AM 50.0 °F - 44.6 °F 82% 29.27 in 6.2 mi SSW 15.0 mph - N/A   Overcast
2:55 AM 50.0 °F - 44.6 °F 82% 29.27 in 6.2 mi SSW 15.0 mph - N/A   Mostly Cloudy
3:25 AM 50.0 °F - 44.6 °F 82% 29.27 in 6.2 mi SSW 13.8 mph - N/A   Overcast
3:43 AM 48.2 °F - 44.6 °F 87% 29.27 in 6.2 mi SW 15.0 mph - N/A   Overcast
3:47 AM 48.2 °F - 44.6 °F 87% 29.27 in 6.2 mi SW 12.7 mph - N/A   Overcast
3:55 AM 48.2 °F - 44.6 °F 87% 29.27 in 6.2 mi SSW 12.7 mph - N/A   Mostly Cloudy
4:00 AM 48 °F - 44 °F 82% 29.30 in 19 mi SSW 13.4 mph - - Rain Rain
4:25 AM 48.2 °F - 42.8 °F 82% 29.30 in 6.2 mi SW 15.0 mph - N/A   Scattered Clouds
4:36 AM 48.2 °F - 42.8 °F 82% 29.30 in 6.2 mi SSW 13.8 mph - N/A   Mostly Cloudy
4:43 AM 48.2 °F - 44.6 °F 87% 29.30 in 6.2 mi SSW 13.8 mph - N/A   Mostly Cloudy
4:55 AM 48.2 °F - 42.8 °F 82% 29.30 in 6.2 mi SW 13.8 mph - N/A   Partly Cloudy
5:25 AM 48.2 °F - 42.8 °F 82% 29.30 in 6.2 mi SW 13.8 mph - N/A   Unknown
5:31 AM 46.4 °F 40.4 °F 42.8 °F 87% 29.30 in 6.2 mi SSW 13.8 mph - N/A   Scattered Clouds
5:35 AM 46.4 °F 40.7 °F 42.8 °F 87% 29.30 in 6.2 mi SSW 12.7 mph - N/A   Mostly Cloudy
5:55 AM 48.2 °F - 42.8 °F 82% 29.33 in 6.2 mi SSW 11.5 mph - N/A   Mostly Cloudy
5:56 AM 48.2 °F - 42.8 °F 82% 29.33 in 6.2 mi SSW 11.5 mph - N/A   Mostly Cloudy
6:03 AM 48.2 °F - 42.8 °F 82% 29.33 in 6.2 mi SSW 11.5 mph - N/A   Mostly Cloudy
6:13 AM 48.2 °F - 42.8 °F 82% 29.33 in 6.2 mi SSW 10.4 mph - N/A   Mostly Cloudy
6:17 AM 48.2 °F - 42.8 °F 82% 29.33 in 6.2 mi SSW 9.2 mph - N/A   Mostly Cloudy
6:21 AM 48.2 °F - 42.8 °F 82% 29.33 in 6.2 mi SSW 10.4 mph - N/A   Overcast
6:25 AM 48.2 °F - 42.8 °F 82% 29.33 in 6.2 mi SSW 9.2 mph - N/A   Mostly Cloudy
6:29 AM 48.2 °F - 42.8 °F 82% 29.33 in 6.2 mi SSW 10.4 mph - N/A   Mostly Cloudy
6:55 AM 48.2 °F - 42.8 °F 82% 29.33 in 6.2 mi SSW 12.7 mph - N/A   Mostly Cloudy
7:00 AM 47 °F - 43 °F 82% 29.36 in 17 mi SSW 13.4 mph - -   Partly Cloudy
7:25 AM 46.4 °F 40.7 °F 42.8 °F 87% 29.36 in 6.2 mi SSW 12.7 mph - N/A   Partly Cloudy
7:48 AM 48.2 °F - 44.6 °F 87% 29.39 in 6.2 mi SSW 13.8 mph - N/A   Overcast
7:55 AM 48.2 °F - 42.8 °F 82% 29.39 in 6.2 mi SSW 15.0 mph - N/A   Overcast
8:25 AM 48.2 °F - 42.8 °F 82% 29.39 in 6.2 mi SSW 15.0 mph - N/A   Overcast
8:37 AM 48.2 °F - 42.8 °F 82% 29.39 in 6.2 mi SSW 13.8 mph - N/A   Mostly Cloudy
8:38 AM 48.2 °F - 42.8 °F 82% 29.39 in 6.2 mi SSW 13.8 mph - N/A   Mostly Cloudy
8:48 AM 46.4 °F 40.7 °F 42.8 °F 87% 29.39 in 6.2 mi SSW 12.7 mph - N/A   Partly Cloudy
8:55 AM 46.4 °F 40.7 °F 42.8 °F 87% 29.39 in 6.2 mi SSW 12.7 mph - N/A   Unknown
9:06 AM 46.4 °F 40.4 °F 42.8 °F 87% 29.42 in 6.2 mi SSW 13.8 mph - N/A   Scattered Clouds
9:13 AM 46.4 °F 40.4 °F 42.8 °F 87% 29.42 in 6.2 mi SSW 13.8 mph - N/A   Mostly Cloudy
9:25 AM 48.2 °F - 42.8 °F 82% 29.42 in 6.2 mi SSW 12.7 mph - N/A   Mostly Cloudy
9:55 AM 48.2 °F - 42.8 °F 82% 29.42 in 6.2 mi SSW 12.7 mph - N/A   Mostly Cloudy
10:00 AM 47 °F - 43 °F 80% 29.45 in 25 mi SSW 13.4 mph - -   Mostly Cloudy
10:25 AM 48.2 °F - 42.8 °F 82% 29.44 in 6.2 mi SSW 12.7 mph - N/A   Overcast
10:55 AM 48.2 °F - 42.8 °F 82% 29.44 in 6.2 mi SSW 18.4 mph - N/A   Overcast
11:25 AM 48.2 °F - 42.8 °F 82% 29.47 in 6.2 mi SSW 13.8 mph - N/A   Overcast
11:55 AM 48.2 °F - 42.8 °F 82% 29.47 in 6.2 mi SSW 13.8 mph - N/A   Overcast
12:25 PM 50.0 °F - 42.8 °F 76% 29.47 in 6.2 mi SSW 13.8 mph - N/A   Overcast
12:51 PM 50.0 °F - 42.8 °F 76% 29.47 in 6.2 mi SSW 13.8 mph - N/A   Overcast
12:55 PM 50.0 °F - 44.6 °F 82% 29.47 in 6.2 mi SSW 15.0 mph - N/A   Overcast
1:00 PM 51 °F - 44 °F 70% 29.49 in 17 mi SSW 13.4 mph - -   Partly Cloudy
1:04 PM 50.0 °F - 44.6 °F 82% 29.47 in 6.2 mi SSW 12.7 mph - N/A   Mostly Cloudy
1:25 PM 50.0 °F - 44.6 °F 82% 29.47 in 6.2 mi SSW 12.7 mph - N/A   Overcast
1:55 PM 50.0 °F - 44.6 °F 82% 29.47 in 6.2 mi SSW 13.8 mph - N/A   Overcast
1:59 PM 50.0 °F - 44.6 °F 82% 29.47 in 6.2 mi SSW 15.0 mph - N/A   Overcast
2:03 PM 50.0 °F - 44.6 °F 82% 29.47 in 6.2 mi SSW 13.8 mph - N/A   Overcast
2:14 PM 50.0 °F - 44.6 °F 82% 29.47 in 6.2 mi SSW 13.8 mph - N/A   Overcast
2:25 PM 50.0 °F - 44.6 °F 82% 29.47 in 6.2 mi SSW 12.7 mph - N/A   Overcast
2:55 PM 50.0 °F - 44.6 °F 82% 29.47 in 6.2 mi SSW 12.7 mph - N/A   Mostly Cloudy
3:15 PM 50.0 °F - 42.8 °F 76% 29.47 in 6.2 mi SSW 13.8 mph - N/A   Overcast
3:21 PM 50.0 °F - 42.8 °F 76% 29.47 in 6.2 mi SSW 12.7 mph - N/A   Overcast
3:25 PM 50.0 °F - 42.8 °F 76% 29.47 in 6.2 mi SSW 12.7 mph - N/A   Overcast
3:40 PM 50.0 °F - 42.8 °F 76% 29.50 in 6.2 mi SSW 11.5 mph - N/A   Overcast
3:49 PM 50.0 °F - 42.8 °F 76% 29.50 in 6.2 mi SSW 10.4 mph - N/A   Overcast
3:55 PM 50.0 °F - 44.6 °F 82% 29.50 in 6.2 mi SSW 10.4 mph - N/A   Overcast
4:00 PM 50 °F - 44 °F 73% 29.52 in 16 mi South 8.9 mph - - Rain Light Rain Showers
4:18 PM 50.0 °F - 44.6 °F 82% 29.50 in 6.2 mi South 9.2 mph - N/A   Overcast
4:25 PM 50.0 °F - 44.6 °F 82% 29.50 in 6.2 mi South 10.4 mph - N/A   Overcast
4:39 PM 50.0 °F - 44.6 °F 82% 29.50 in 6.2 mi South 10.4 mph - N/A   Overcast
4:43 PM 50.0 °F - 44.6 °F 82% 29.50 in 6.2 mi South 10.4 mph - N/A   Overcast
4:55 PM 50.0 °F - 44.6 °F 82% 29.50 in 6.2 mi SSW 11.5 mph - N/A   Overcast
5:01 PM 50.0 °F - 44.6 °F 82% 29.50 in 3.7 mi South 11.5 mph - N/A   Haze
5:07 PM 48.2 °F - 44.6 °F 87% 29.50 in 6.2 mi South 11.5 mph - N/A Rain Light Rain
5:20 PM 48.2 °F - 44.6 °F 87% 29.50 in 6.2 mi South 10.4 mph - N/A   Mostly Cloudy
5:25 PM 48.2 °F - 44.6 °F 87% 29.50 in 6.2 mi South 10.4 mph - N/A   Mostly Cloudy
5:41 PM 50.0 °F - 44.6 °F 82% 29.50 in 6.2 mi South 10.4 mph - N/A   Overcast
5:42 PM 50.0 °F - 44.6 °F 82% 29.50 in 6.2 mi South 10.4 mph - N/A   Overcast
5:55 PM 50.0 °F - 44.6 °F 82% 29.50 in 6.2 mi South 11.5 mph - N/A   Overcast
6:25 PM 48.2 °F - 44.6 °F 87% 29.53 in 6.2 mi South 9.2 mph - N/A   Mostly Cloudy
6:55 PM 48.2 °F - 44.6 °F 87% 29.53 in 6.2 mi South 12.7 mph - N/A Rain Light Rain
6:59 PM 48.2 °F - 44.6 °F 87% 29.53 in 6.2 mi SSW 12.7 mph - N/A Rain Light Rain
7:00 PM 48 °F - 45 °F 84% 29.54 in 9 mi SSW 11.2 mph - - Rain Light Rain Showers
7:05 PM 48.2 °F - 44.6 °F 87% 29.53 in 6.2 mi South 11.5 mph - N/A Rain Light Rain
7:25 PM 48.2 °F - 46.4 °F 93% 29.53 in 5.0 mi South 15.0 mph - N/A Rain Rain Showers
7:36 PM 46.4 °F 41.5 °F 46.4 °F 100% 29.53 in 4.3 mi South 10.4 mph - N/A Rain Light Rain
7:40 PM 46.4 °F 41.9 °F 46.4 °F 100% 29.53 in 5.6 mi South 9.2 mph - N/A Rain Light Rain
7:55 PM 46.4 °F 41.9 °F 46.4 °F 100% 29.53 in 6.2 mi South 9.2 mph - N/A Rain Light Rain
8:05 PM 46.4 °F 41.9 °F 44.6 °F 93% 29.53 in 6.2 mi South 9.2 mph - N/A   Overcast
8:25 PM 46.4 °F 42.4 °F 44.6 °F 93% 29.53 in 6.2 mi South 8.1 mph - N/A   Overcast
8:35 PM 48.2 °F - 46.4 °F 93% 29.53 in 6.2 mi South 10.4 mph - N/A Rain Light Rain
8:55 PM 46.4 °F 41.5 °F 44.6 °F 93% 29.53 in 6.2 mi South 10.4 mph - N/A   Mostly Cloudy
9:05 PM 46.4 °F 42.4 °F 44.6 °F 93% 29.53 in 6.2 mi South 8.1 mph - N/A   Mostly Cloudy
9:25 PM 46.4 °F 42.4 °F 44.6 °F 93% 29.53 in 6.2 mi South 8.1 mph - N/A   Overcast
9:55 PM 46.4 °F 42.4 °F 44.6 °F 93% 29.53 in 6.2 mi South 8.1 mph - N/A   Mostly Cloudy
10:00 PM 47 °F - 45 °F 90% 29.54 in 14 mi South 8.9 mph - -   Partly Cloudy
10:11 PM 46.4 °F 41.9 °F 44.6 °F 93% 29.53 in 6.2 mi South 9.2 mph - N/A   Mostly Cloudy
10:12 PM 46.4 °F 41.9 °F 44.6 °F 93% 29.53 in 6.2 mi South 9.2 mph - N/A   Overcast
10:19 PM 46.4 °F 42.4 °F 44.6 °F 93% 29.53 in 6.2 mi South 8.1 mph - N/A   Overcast
10:25 PM 46.4 °F 42.4 °F 44.6 °F 93% 29.53 in 6.2 mi South 8.1 mph - N/A   Mostly Cloudy
10:33 PM 46.4 °F 41.9 °F 44.6 °F 93% 29.53 in 6.2 mi South 9.2 mph - N/A   Mostly Cloudy
10:55 PM 46.4 °F 42.4 °F 44.6 °F 93% 29.53 in 6.2 mi South 8.1 mph - N/A Rain Light Rain
11:02 PM 46.4 °F 42.4 °F 44.6 °F 93% 29.53 in 6.2 mi South 8.1 mph - N/A Rain Light Rain
11:06 PM 46.4 °F 42.4 °F 44.6 °F 93% 29.53 in 6.2 mi South 8.1 mph - N/A   Light Drizzle
11:14 PM 46.4 °F 42.9 °F 44.6 °F 93% 29.53 in 6.2 mi South 6.9 mph - N/A   Mostly Cloudy
11:25 PM 46.4 °F 42.4 °F 44.6 °F 93% 29.53 in 6.2 mi South 8.1 mph - N/A   Heavy Drizzle
11:55 PM 46.4 °F 42.9 °F 44.6 °F 93% 29.50 in 6.2 mi South 6.9 mph - N/A   Mostly Cloudy